Athens, Greece

9:35 AM EET on March 01, 2015 (GMT +0200)
SV1GST - SOURMENA HELLINIKO | Change Station
CLOSE
Current Station
Personal Weather Station
Location: Athina, Attiki
Elevation: 300 ft
Nearby Weather Stations

Elev 300 ft 37.89 °N, 23.75 °E | Updated 4 seconds ago

Partly Cloudy
Partly Cloudy
58.5 °F
Feels Like 58.5 °F
N
2.0
Wind Variable Wind from WNW
Gusts 2.0 mph

Today
High -- | Low -- °F
--% Chance of Precip.
Yesterday
High -- | Low -- °F
Precip. -- in
6:57 AM 6:18 PM
Waxing Gibbous, 83% visible
Pressure 30.04 in
Visibility 6.2 miles
Clouds Few 2500 ft
Dew Point 53 °F
Humidity 83%
Rainfall 0.00 in
Snow Depth Not available.
UV 2 out of 12
Pollen Not available.
Air Quality Not available.
Flu Activity Not available.
METAR LGAV 010720Z 05002KT 9999 FEW025 13/09 Q1017 NOSIG

More Conditions Fewer Conditions

Pressure 30.04 in
Visibility 6.2 miles
Clouds Few 2500 ft
Dew Point 53 °F
Humidity 83%
Rainfall 0.00 in
Snow Depth Not available.
UV 2 out of 12
Pollen Not available.
Air Quality Not available.
Flu Activity Not available.
METAR LGAV 010720Z 05002KT 9999 FEW025 13/09 Q1017 NOSIG

More Conditions Fewer Conditions

10-Day Weather Forecast

Almanac

Astronomy

Mar. 01, 2015 Rise Set
Actual Time
Civil Twilight
Nautical Twilight
Astronomical Twilight
Moon
Length of Visible Light
Length of Day
Tomorrow will be .
, % of the Moon is Illuminated

Today's Extremes

Country Highs Country Lows

Community

WunderPhotos

Upload Photos

1,801,347 photos uploaded!

WunderBlogs® & News

Nearby

Air Quality

  Air Quality AQ Index Pollutant
Not available.

Snow Depth

Station Depth Elevation

Earthquake Activity

City Distance Mag. Time & Date
Minimum magnitude displayed is 2.5.

Coastal Water Temperatures

Place Temperature

Nearby Weather Stations